createdAt,value
2018-03-22T00:00:50.326Z,54.46
2018-03-22T00:03:24.635Z,54.22
2018-03-22T00:05:55.127Z,55.00
2018-03-22T00:08:25.804Z,54.65
2018-03-22T00:10:56.529Z,54.18
2018-03-22T00:13:26.685Z,54.79
2018-03-22T00:15:59.628Z,53.38
2018-03-22T00:18:30.821Z,53.11
2018-03-22T00:21:00.998Z,53.40
2018-03-22T00:23:33.347Z,55.12
2018-03-22T00:26:06.988Z,53.99
2018-03-22T00:28:38.388Z,54.00
2018-03-22T00:31:10.531Z,55.37
2018-03-22T00:33:41.718Z,55.97
2018-03-22T00:36:14.804Z,55.36
2018-03-22T00:38:45.723Z,54.91
2018-03-22T00:41:15.966Z,55.04
2018-03-22T00:43:47.091Z,55.56
2018-03-22T00:46:19.206Z,55.93
2018-03-22T00:48:50.022Z,57.45
2018-03-22T00:51:21.572Z,57.67
2018-03-22T00:53:52.026Z,56.27
2018-03-22T00:56:23.265Z,55.42
2018-03-22T00:58:54.642Z,55.17
2018-03-22T01:01:26.656Z,54.85
2018-03-22T01:03:57.780Z,56.17
2018-03-22T01:06:30.861Z,56.17
2018-03-22T01:09:02.174Z,55.32
2018-03-22T01:11:32.827Z,55.44
2018-03-22T01:14:07.575Z,55.27
2018-03-22T01:16:40.372Z,55.49
2018-03-22T01:19:11.863Z,56.60
2018-03-22T01:21:43.399Z,55.78
2018-03-22T01:24:16.214Z,55.66
2018-03-22T01:26:47.313Z,56.72
2018-03-22T01:29:19.029Z,56.53
2018-03-22T01:31:48.642Z,56.54
2018-03-22T01:34:18.655Z,56.18
2018-03-22T01:36:50.111Z,56.30
2018-03-22T01:39:20.785Z,55.98
2018-03-22T01:41:51.801Z,56.72
2018-03-22T01:44:21.435Z,56.11
2018-03-22T01:46:53.531Z,56.21
2018-03-22T01:49:24.562Z,55.94
2018-03-22T01:51:55.803Z,56.47
2018-03-22T01:54:29.297Z,56.33
2018-03-22T01:56:59.646Z,56.30
2018-03-22T01:59:29.736Z,56.19
2018-03-22T02:02:00.550Z,56.27
2018-03-22T02:04:32.622Z,56.63
2018-03-22T02:07:02.782Z,55.70
2018-03-22T02:09:32.747Z,56.34
2018-03-22T02:12:05.603Z,56.58
2018-03-22T02:14:36.413Z,57.03
2018-03-22T02:17:08.400Z,56.79
2018-03-22T02:19:39.534Z,56.77
2018-03-22T02:22:10.057Z,56.14
2018-03-22T02:24:40.877Z,56.16
2018-03-22T02:27:11.344Z,55.94
2018-03-22T02:29:44.125Z,56.48
2018-03-22T02:32:14.428Z,55.83
2018-03-22T02:34:44.414Z,55.43
2018-03-22T02:37:14.386Z,56.43
2018-03-22T02:39:48.086Z,56.36
2018-03-22T02:42:20.467Z,57.80
2018-03-22T02:44:51.428Z,58.06
2018-03-22T02:47:22.855Z,58.02
2018-03-22T02:49:55.564Z,57.67
2018-03-22T02:52:25.885Z,57.35
2018-03-22T02:54:57.306Z,56.65
2018-03-22T02:57:29.921Z,56.14
2018-03-22T03:00:01.157Z,55.69
2018-03-22T03:02:33.142Z,55.48
2018-03-22T03:05:04.044Z,55.70
2018-03-22T03:07:34.871Z,56.15
2018-03-22T03:10:05.690Z,55.91
2018-03-22T03:12:36.645Z,56.51
2018-03-22T03:15:06.463Z,56.47
2018-03-22T03:17:36.846Z,57.90
2018-03-22T03:20:07.946Z,58.66
2018-03-22T03:22:39.635Z,58.56
2018-03-22T03:25:10.618Z,58.26
2018-03-22T03:27:41.566Z,58.66
2018-03-22T03:30:13.003Z,57.54
2018-03-22T03:32:44.718Z,56.72
2018-03-22T03:35:14.829Z,56.32
2018-03-22T03:37:44.806Z,56.54
2018-03-22T03:40:14.897Z,58.52
2018-03-22T03:42:46.577Z,59.97
2018-03-22T03:45:16.792Z,61.45
2018-03-22T03:47:48.559Z,60.09
2018-03-22T03:50:20.462Z,57.75
2018-03-22T03:52:55.758Z,56.94
2018-03-22T03:55:25.738Z,56.72
2018-03-22T03:57:57.310Z,57.09
2018-03-22T04:00:27.446Z,57.08
2018-03-22T04:02:58.237Z,56.28
2018-03-22T04:05:29.224Z,56.07
2018-03-22T04:08:01.458Z,56.25
2018-03-22T04:10:31.742Z,57.38
2018-03-22T04:13:03.987Z,57.33
2018-03-22T04:15:34.389Z,57.41
2018-03-22T04:18:05.241Z,56.20
2018-03-22T04:20:35.096Z,55.27
2018-03-22T04:23:05.877Z,55.75
2018-03-22T04:25:36.341Z,56.03
2018-03-22T04:28:06.278Z,57.36
2018-03-22T04:30:36.232Z,57.17
2018-03-22T04:33:07.149Z,56.69
2018-03-22T04:35:37.229Z,56.88
2018-03-22T04:38:07.282Z,57.39
2018-03-22T04:40:40.397Z,57.89
2018-03-22T04:43:11.367Z,56.70
2018-03-22T04:45:43.544Z,56.20
2018-03-22T04:48:15.322Z,56.41
2018-03-22T04:50:46.943Z,56.26
2018-03-22T04:53:21.231Z,56.48
2018-03-22T04:55:52.483Z,56.65
2018-03-22T04:58:22.686Z,56.97
2018-03-22T05:00:53.568Z,57.33
2018-03-22T05:03:23.879Z,57.57
2018-03-22T05:05:54.176Z,58.35
2018-03-22T05:08:24.262Z,57.83
2018-03-22T05:10:56.183Z,57.00
2018-03-22T05:13:29.357Z,57.36
2018-03-22T05:16:00.683Z,57.90
2018-03-22T05:18:30.889Z,58.08
2018-03-22T05:21:06.064Z,58.24
2018-03-22T05:23:38.117Z,58.48
2018-03-22T05:26:08.822Z,58.63
2018-03-22T05:28:38.939Z,58.90
2018-03-22T05:31:10.757Z,58.34
2018-03-22T05:33:40.544Z,58.16
2018-03-22T05:36:17.811Z,58.58
2018-03-22T05:38:51.380Z,59.46
2018-03-22T05:41:22.541Z,60.40
2018-03-22T05:43:53.190Z,60.54
2018-03-22T05:46:23.218Z,59.48
2018-03-22T05:48:55.577Z,58.31
2018-03-22T05:51:27.870Z,57.70
2018-03-22T05:53:58.467Z,57.28
2018-03-22T05:56:29.590Z,57.18
2018-03-22T05:59:02.633Z,56.91
2018-03-22T06:01:34.975Z,56.29
2018-03-22T06:04:05.774Z,55.26
2018-03-22T06:06:38.652Z,55.70
2018-03-22T06:09:08.809Z,56.29
2018-03-22T06:11:39.549Z,56.71
2018-03-22T06:14:12.419Z,56.20
2018-03-22T06:16:43.406Z,56.39
2018-03-22T06:19:15.460Z,56.46
2018-03-22T06:21:46.086Z,55.30
2018-03-22T06:24:15.934Z,54.97
2018-03-22T06:26:49.932Z,53.79
2018-03-22T06:29:21.808Z,52.40
2018-03-22T06:31:53.247Z,52.59
2018-03-22T06:34:24.218Z,51.96
2018-03-22T06:36:55.291Z,51.66
2018-03-22T06:39:27.202Z,50.71
2018-03-22T06:41:58.539Z,50.17
2018-03-22T06:44:29.583Z,51.02
2018-03-22T06:47:02.430Z,49.98
2018-03-22T06:49:33.491Z,49.59
2018-03-22T06:52:04.036Z,48.33
2018-03-22T06:54:35.244Z,47.03
2018-03-22T06:57:06.851Z,48.34
2018-03-22T06:59:36.982Z,48.58
2018-03-22T07:02:21.623Z,47.34
2018-03-22T07:04:53.707Z,47.86
2018-03-22T07:07:24.607Z,47.45
2018-03-22T07:09:59.243Z,46.73
2018-03-22T07:12:30.454Z,46.64
2018-03-22T07:15:02.296Z,46.31
2018-03-22T07:17:33.609Z,45.77
2018-03-22T07:20:05.048Z,45.48
2018-03-22T07:22:35.467Z,46.10
2018-03-22T07:25:05.743Z,44.88
2018-03-22T07:27:37.003Z,44.40
2018-03-22T07:30:08.877Z,44.22
2018-03-22T07:32:38.581Z,44.11
2018-03-22T07:35:09.423Z,44.90
2018-03-22T07:37:39.380Z,44.20
2018-03-22T07:40:09.737Z,45.02
2018-03-22T07:42:39.999Z,45.70
2018-03-22T07:45:10.749Z,44.54
2018-03-22T07:47:42.528Z,45.69
2018-03-22T07:50:13.511Z,44.64
2018-03-22T07:52:44.334Z,42.65
2018-03-22T07:55:16.613Z,42.38
2018-03-22T07:57:46.797Z,41.24
2018-03-22T08:00:18.796Z,40.76
2018-03-22T08:02:49.409Z,41.10
2018-03-22T08:05:21.245Z,40.42
2018-03-22T08:07:52.582Z,39.88
2018-03-22T08:10:24.971Z,38.41
2018-03-22T08:12:58.866Z,39.63
2018-03-22T08:15:28.830Z,38.76
2018-03-22T08:17:59.765Z,38.60
2018-03-22T08:20:30.592Z,37.75
2018-03-22T08:23:01.682Z,39.30
2018-03-22T08:25:33.092Z,38.34
2018-03-22T08:28:05.912Z,39.01
2018-03-22T08:30:36.829Z,40.02
2018-03-22T08:33:10.415Z,39.48
2018-03-22T08:35:46.933Z,39.75
2018-03-22T08:38:20.497Z,40.22
2018-03-22T08:40:52.319Z,38.71
2018-03-22T08:43:23.592Z,37.63
2018-03-22T08:45:53.639Z,37.38
2018-03-22T08:48:29.146Z,37.02
2018-03-22T08:51:01.716Z,36.99
2018-03-22T08:53:31.811Z,36.77
2018-03-22T08:56:02.937Z,38.01
2018-03-22T08:58:36.243Z,36.03
2018-03-22T09:01:06.938Z,37.11
2018-03-22T09:03:37.935Z,37.11
2018-03-22T09:06:09.322Z,37.17
2018-03-22T09:08:39.771Z,39.22
2018-03-22T09:11:09.792Z,36.97
2018-03-22T09:13:41.805Z,36.49
2018-03-22T09:16:12.849Z,37.50
2018-03-22T09:18:46.688Z,35.64
2018-03-22T09:21:19.893Z,36.53
2018-03-22T09:23:50.319Z,36.77
2018-03-22T09:26:20.495Z,38.33
2018-03-22T09:28:50.814Z,38.44
2018-03-22T09:31:22.238Z,36.99
2018-03-22T09:33:52.341Z,37.84
2018-03-22T09:36:26.568Z,35.85
2018-03-22T09:38:56.864Z,37.59
2018-03-22T09:41:27.496Z,36.30
2018-03-22T09:44:00.445Z,37.15
2018-03-22T09:46:30.630Z,36.14
2018-03-22T09:49:00.868Z,37.20
2018-03-22T09:51:31.150Z,36.03
2018-03-22T09:54:02.709Z,37.19
2018-03-22T09:56:33.235Z,35.51
2018-03-22T09:59:08.330Z,35.37
2018-03-22T10:01:39.641Z,35.88
2018-03-22T10:04:13.467Z,33.83
2018-03-22T10:12:30.713Z,34.14
2018-03-22T10:15:01.603Z,34.80
2018-03-22T10:17:34.668Z,34.12
2018-03-22T10:20:04.909Z,34.45
2018-03-22T10:25:49.585Z,35.69
2018-03-22T10:28:20.700Z,35.30
2018-03-22T10:30:51.341Z,34.78
2018-03-22T10:33:23.142Z,36.92
2018-03-22T10:35:54.307Z,35.64
2018-03-22T10:38:24.835Z,34.46
2018-03-22T10:40:54.881Z,35.60
2018-03-22T10:43:24.730Z,34.54
2018-03-22T10:45:55.637Z,33.92
2018-03-22T10:48:26.001Z,34.38
2018-03-22T10:50:56.770Z,34.65
2018-03-22T10:53:29.547Z,32.99
2018-03-22T10:56:00.484Z,32.63
2018-03-22T10:58:31.710Z,34.40
2018-03-22T11:01:08.460Z,31.31
2018-03-22T11:03:44.222Z,32.68
2018-03-22T11:06:14.520Z,31.27
2018-03-22T11:08:46.975Z,31.49
2018-03-22T11:11:18.230Z,31.15
2018-03-22T11:13:50.065Z,32.08
2018-03-22T11:16:22.269Z,31.18
2018-03-22T11:18:55.226Z,31.45
2018-03-22T11:21:26.162Z,31.57
2018-03-22T11:24:16.492Z,30.57
2018-03-22T11:26:49.816Z,30.31
2018-03-22T11:29:24.705Z,30.18
2018-03-22T11:32:18.893Z,31.38
2018-03-22T11:34:49.307Z,31.88
2018-03-22T11:40:29.796Z,31.51
2018-03-22T11:42:59.717Z,32.13
2018-03-22T11:45:30.937Z,30.46
2018-03-22T11:48:01.722Z,29.82
2018-03-22T11:50:31.933Z,30.64
2018-03-22T11:53:02.576Z,29.56
2018-03-22T11:55:33.524Z,29.83
2018-03-22T11:58:04.652Z,31.16
2018-03-22T12:00:38.887Z,30.07
2018-03-22T12:03:09.810Z,30.55
2018-03-22T12:05:40.546Z,29.82
2018-03-22T12:08:13.615Z,30.62
2018-03-22T12:10:43.660Z,30.25
2018-03-22T12:13:15.344Z,29.54
2018-03-22T12:15:46.426Z,30.08
2018-03-22T12:18:16.070Z,28.60
2018-03-22T12:20:47.013Z,29.12
2018-03-22T12:23:18.463Z,29.40
2018-03-22T12:25:50.165Z,29.24
2018-03-22T12:28:20.179Z,28.62
2018-03-22T12:30:51.438Z,29.34
2018-03-22T12:33:21.860Z,28.92
2018-03-22T12:35:52.059Z,29.57
2018-03-22T12:38:22.146Z,29.65
2018-03-22T12:40:53.040Z,28.82
2018-03-22T12:43:23.844Z,28.53
2018-03-22T12:45:54.983Z,27.12
2018-03-22T12:48:25.726Z,27.75
2018-03-22T12:50:57.483Z,28.84
2018-03-22T12:53:27.273Z,28.10
2018-03-22T12:55:57.415Z,27.41
2018-03-22T12:58:27.555Z,28.33
2018-03-22T13:00:58.466Z,28.22
2018-03-22T13:03:30.358Z,28.65
2018-03-22T13:06:03.032Z,27.66
2018-03-22T13:08:34.960Z,29.00
2018-03-22T13:11:05.301Z,28.85
2018-03-22T13:13:35.269Z,28.77
2018-03-22T13:16:07.612Z,28.91
2018-03-22T13:18:38.394Z,29.38
2018-03-22T13:21:12.616Z,29.53
2018-03-22T13:23:42.393Z,29.64
2018-03-22T13:26:14.145Z,28.28
2018-03-22T13:28:44.337Z,29.10
2018-03-22T13:31:15.452Z,28.02
2018-03-22T13:33:49.509Z,27.28
2018-03-22T13:36:22.926Z,26.30
2018-03-22T13:38:54.228Z,27.33
2018-03-22T13:41:26.118Z,28.04
2018-03-22T13:43:55.855Z,29.82
2018-03-22T13:46:26.433Z,30.50
2018-03-22T13:48:56.203Z,29.59
2018-03-22T13:51:26.152Z,28.51
2018-03-22T13:53:56.653Z,28.80
2018-03-22T13:56:27.452Z,27.46
2018-03-22T13:58:57.651Z,27.69
2018-03-22T14:01:28.507Z,27.06
2018-03-22T14:03:58.821Z,28.28
2018-03-22T14:06:29.789Z,28.42
2018-03-22T14:08:59.559Z,27.71
2018-03-22T14:11:30.232Z,26.74
2018-03-22T14:14:00.676Z,26.41
2018-03-22T14:16:31.727Z,28.32
2018-03-22T14:19:06.801Z,27.62
2018-03-22T14:21:37.621Z,27.65
2018-03-22T14:24:08.614Z,28.49
2018-03-22T14:26:39.653Z,27.11
2018-03-22T14:29:09.618Z,27.63
2018-03-22T14:31:39.467Z,27.29
2018-03-22T14:34:09.481Z,27.00
2018-03-22T14:36:40.934Z,28.09
2018-03-22T14:42:25.507Z,29.75
2018-03-22T14:44:57.793Z,28.66
2018-03-22T14:47:28.809Z,28.64
2018-03-22T14:50:01.341Z,28.28
2018-03-22T14:52:32.556Z,28.04
2018-03-22T14:55:03.336Z,27.83
2018-03-22T14:57:33.438Z,28.29
2018-03-22T15:00:03.895Z,28.02
2018-03-22T15:02:33.788Z,27.23
2018-03-22T15:05:03.850Z,27.45
2018-03-22T15:07:45.125Z,27.50
2018-03-22T15:10:18.754Z,28.25
2018-03-22T15:12:49.368Z,28.41
2018-03-22T15:15:22.376Z,28.78
2018-03-22T15:17:53.604Z,30.03
2018-03-22T15:20:24.544Z,29.46
2018-03-22T15:22:54.538Z,29.66
2018-03-22T15:25:25.942Z,30.37
2018-03-22T15:27:58.327Z,30.03
2018-03-22T15:30:29.636Z,29.31
2018-03-22T15:33:00.438Z,29.53
2018-03-22T15:35:36.300Z,29.77
2018-03-22T15:38:11.282Z,29.80
2018-03-22T15:40:43.532Z,29.74
2018-03-22T15:43:15.130Z,29.46
2018-03-22T15:45:45.730Z,29.68
2018-03-22T15:48:19.264Z,31.53
2018-03-22T15:50:57.524Z,29.66
2018-03-22T15:53:32.326Z,29.70
2018-03-22T15:56:02.987Z,29.46
2018-03-22T15:58:37.294Z,29.65
2018-03-22T16:01:10.545Z,29.32
2018-03-22T16:03:41.961Z,29.63
2018-03-22T16:06:12.612Z,30.57
2018-03-22T16:08:42.642Z,31.05
2018-03-22T16:11:13.149Z,30.36
2018-03-22T16:13:43.406Z,30.66
2018-03-22T16:16:14.079Z,30.75
2018-03-22T16:18:45.653Z,31.45
2018-03-22T16:21:22.702Z,31.78
2018-03-22T16:23:55.169Z,31.50
2018-03-22T16:26:25.068Z,31.81
2018-03-22T16:28:58.585Z,31.92
2018-03-22T16:31:30.167Z,31.30
2018-03-22T16:34:00.092Z,32.12
2018-03-22T16:36:33.051Z,32.19
2018-03-22T16:39:04.055Z,31.87
2018-03-22T16:41:35.830Z,32.06
2018-03-22T16:44:06.369Z,31.75
2018-03-22T16:46:37.315Z,32.17
2018-03-22T16:49:07.830Z,32.45
2018-03-22T16:51:41.014Z,33.40
2018-03-22T16:54:13.628Z,33.96
2018-03-22T16:56:43.368Z,33.80
2018-03-22T16:59:14.086Z,33.76
2018-03-22T17:01:44.019Z,34.02
2018-03-22T17:04:16.245Z,33.53
2018-03-22T17:06:47.156Z,33.56
2018-03-22T17:09:18.130Z,34.18
2018-03-22T17:11:48.963Z,34.08
2018-03-22T17:14:18.946Z,34.87
2018-03-22T17:16:49.156Z,35.06
2018-03-22T17:19:19.865Z,35.40
2018-03-22T17:21:52.603Z,35.49
2018-03-22T17:24:24.221Z,35.70
2018-03-22T17:26:54.804Z,35.83
2018-03-22T17:29:24.947Z,36.09
2018-03-22T17:31:55.475Z,36.39
2018-03-22T17:34:26.356Z,36.42
2018-03-22T17:37:18.365Z,36.27
2018-03-22T17:39:50.809Z,37.22
2018-03-22T17:42:23.068Z,37.47
2018-03-22T17:44:56.371Z,37.92
2018-03-22T17:47:36.498Z,38.32
2018-03-22T17:50:06.276Z,39.03
2018-03-22T17:52:36.030Z,39.57
2018-03-22T17:55:07.681Z,39.83
2018-03-22T17:57:39.427Z,39.62
2018-03-22T18:00:13.928Z,40.04
2018-03-22T18:02:49.998Z,40.48
2018-03-22T18:05:23.779Z,40.87
2018-03-22T18:08:28.145Z,40.76
2018-03-22T18:11:02.702Z,41.48
2018-03-22T18:13:34.066Z,41.25
2018-03-22T18:16:06.005Z,41.58
2018-03-22T18:18:39.134Z,41.82
2018-03-22T18:21:26.661Z,41.91
2018-03-22T18:24:00.813Z,42.28
2018-03-22T18:26:31.082Z,42.36
2018-03-22T18:29:01.921Z,42.69
2018-03-22T18:31:34.237Z,42.44
2018-03-22T18:34:05.714Z,42.73
2018-03-22T18:36:37.330Z,42.98
2018-03-22T18:39:08.188Z,43.77
2018-03-22T18:41:39.794Z,43.87
2018-03-22T18:44:11.889Z,44.31
2018-03-22T18:46:42.273Z,44.45
2018-03-22T18:49:17.139Z,44.82
2018-03-22T18:51:47.773Z,45.74
2018-03-22T18:54:18.952Z,46.18
2018-03-22T18:56:50.117Z,46.23
2018-03-22T18:59:20.895Z,45.75
2018-03-22T19:01:50.788Z,45.16
2018-03-22T19:04:20.785Z,45.02
2018-03-22T19:06:51.960Z,44.10
2018-03-22T19:09:33.146Z,44.75
2018-03-22T19:12:03.900Z,44.02
2018-03-22T19:14:34.594Z,44.68
2018-03-22T19:17:06.937Z,45.67
2018-03-22T19:19:38.301Z,45.27
2018-03-22T19:22:08.254Z,44.79
2018-03-22T19:24:39.635Z,44.46
2018-03-22T19:27:10.887Z,44.33
2018-03-22T19:29:42.585Z,45.05
2018-03-22T19:32:15.377Z,46.10
2018-03-22T19:34:48.955Z,46.70
2018-03-22T19:37:21.776Z,47.17
2018-03-22T19:39:54.708Z,47.97
2018-03-22T19:42:24.935Z,48.14
2018-03-22T19:44:55.746Z,47.65
2018-03-22T19:47:26.053Z,47.34
2018-03-22T19:49:57.823Z,48.19
2018-03-22T19:52:28.114Z,48.13
2018-03-22T19:55:00.067Z,48.33
2018-03-22T19:57:31.446Z,48.30
2018-03-22T20:00:01.135Z,48.54
2018-03-22T20:02:32.493Z,48.03
2018-03-22T20:05:05.452Z,47.77
2018-03-22T20:07:36.420Z,47.44
2018-03-22T20:10:07.581Z,47.44
2018-03-22T20:12:40.881Z,47.89
2018-03-22T20:15:14.366Z,48.32
2018-03-22T20:17:46.663Z,48.69
2018-03-22T20:20:18.118Z,48.89
2018-03-22T20:22:50.058Z,49.46
2018-03-22T20:25:22.093Z,50.14
2018-03-22T20:27:56.556Z,50.68
2018-03-22T20:30:26.759Z,50.47
2018-03-22T20:33:00.564Z,50.19
2018-03-22T20:35:31.652Z,50.19
2018-03-22T20:38:02.468Z,49.97
2018-03-22T20:40:34.328Z,50.12
2018-03-22T20:43:05.457Z,49.11
2018-03-22T20:45:36.673Z,48.93
2018-03-22T20:48:07.454Z,49.64
2018-03-22T20:50:42.359Z,50.17
2018-03-22T20:53:15.094Z,49.41
2018-03-22T20:55:46.171Z,48.83
2018-03-22T20:58:22.094Z,49.46
2018-03-22T21:00:53.704Z,50.51
2018-03-22T21:03:25.215Z,51.51
2018-03-22T21:05:55.894Z,51.03
2018-03-22T21:08:27.537Z,51.61
2018-03-22T21:10:59.016Z,52.32
2018-03-22T21:13:31.761Z,52.07
2018-03-22T21:16:03.842Z,51.28
2018-03-22T21:18:34.217Z,50.73
2018-03-22T21:21:18.014Z,51.06
2018-03-22T21:23:50.322Z,51.08
2018-03-22T21:26:22.217Z,51.61
2018-03-22T21:28:54.937Z,51.61
2018-03-22T21:31:24.628Z,51.88
2018-03-22T21:33:55.204Z,51.69
2018-03-22T21:36:26.972Z,52.36
2018-03-22T21:38:57.009Z,52.60
2018-03-22T21:41:28.643Z,53.20
2018-03-22T21:44:16.778Z,53.53
2018-03-22T21:46:47.780Z,52.99
2018-03-22T21:49:19.278Z,52.80
2018-03-22T21:54:56.584Z,52.81
2018-03-22T21:57:26.815Z,51.98
2018-03-22T21:59:58.872Z,52.05
2018-03-22T22:02:28.649Z,52.71
2018-03-22T22:05:00.640Z,53.45
2018-03-22T22:07:33.608Z,53.00
2018-03-22T22:10:05.136Z,52.00
2018-03-22T22:12:42.568Z,51.70
2018-03-22T22:15:15.402Z,52.08
2018-03-22T22:17:47.620Z,53.35
2018-03-22T22:20:18.075Z,54.11
2018-03-22T22:22:48.383Z,52.54
2018-03-22T22:25:18.739Z,52.43
2018-03-22T22:27:49.687Z,53.16
2018-03-22T22:30:20.962Z,53.72
2018-03-22T22:35:49.814Z,53.78
2018-03-22T22:38:20.338Z,53.79
2018-03-22T22:41:12.603Z,55.07
2018-03-22T22:43:53.847Z,55.11
2018-03-22T22:46:24.673Z,55.51
2018-03-22T22:48:54.783Z,54.96
2018-03-22T22:51:26.432Z,54.68
2018-03-22T22:53:57.450Z,55.42
2018-03-22T22:56:30.245Z,56.22
2018-03-22T22:59:01.748Z,55.60
2018-03-22T23:01:32.051Z,54.44
2018-03-22T23:04:02.775Z,54.02
2018-03-22T23:06:33.867Z,54.12
2018-03-22T23:09:06.110Z,54.21
2018-03-22T23:11:46.507Z,54.06
2018-03-22T23:14:23.653Z,54.35
2018-03-22T23:16:54.773Z,54.50
2018-03-22T23:19:24.990Z,54.39
2018-03-22T23:21:55.760Z,54.08
2018-03-22T23:24:28.293Z,53.51
2018-03-22T23:27:02.803Z,53.37
2018-03-22T23:29:34.005Z,53.73
2018-03-22T23:32:04.612Z,54.44
2018-03-22T23:34:35.386Z,53.67
2018-03-22T23:37:06.670Z,53.25
2018-03-22T23:39:41.789Z,54.07
2018-03-22T23:42:23.628Z,53.76
2018-03-22T23:44:54.845Z,53.76
2018-03-22T23:47:26.931Z,53.61
2018-03-22T23:49:56.908Z,54.21
2018-03-22T23:52:32.038Z,54.75
2018-03-22T23:55:04.210Z,54.67
2018-03-22T23:57:35.009Z,55.17
